Pagrindinis puslapis
METAR-TAF:

METAR-TAF

Oro uostai :

Laoag, Filipinai

platuma: 18-11N, ilguma: 120-32E, Aukštis: 4 m

Dabartinis oras

Ataskaita buvo paskelbta 1 valandą ir 40 minutes, ne 12:00 UTC
Vėjas 9 kt iš Šiaurės/Šiaurės Rytų
Temperatūra 24°C
Drėgmė 94%
Slėgis 1013 hPa
Matomumas 10 km arba daugiau
Išsisklaidę debesys ne aukštis 1800 ft
Su prošvaistėmis ne aukštis 27000 ft

METAR: RPLI 211200Z 02009KT 9999 SCT018 BKN270 24/23 Q1013 NOSIG RMK A2991

Laikas: 21:40 (13:40 UTC)

Prognozė

Ataskaita buvo paskelbta 2 valandos ir 40 minutes, ne 11:00 UTC
Prognozė galioja nuo 21 metu 12 UTC su 22 metu 12 UTC
Vėjas 14 kt iš Šiaurės/Šiaurės Rytų
Matomumas 10 km arba daugiau
Mažai debesys ne aukštis 1800 ft
Išsisklaidę debesys ne aukštis 10000 ft
Laikinai
nuo 21 metu 12 UTC su 21 metu 18 UTC
Vėjas 18 kt iš Šiaurės
Išsisklaidę debesys ne aukštis 1800 ft
Su prošvaistėmis ne aukštis 10000 ft

TAF: RPLI 211100Z 2112/2212 02014KT 9999 FEW018 SCT100 TEMPO 2112/2118 01018KT SCT018 BKN100

Orai ataskaitas ir orų prognozės (METAR, TAF).

turimą stotys yra geltonos ir raudonos taškus žemėlapyje.

Perkelti pele per norėdami pamatyti stoties vardą.

Tada spustelėkite, norėdami matyti oro stebėjimo ir prognozės.

Norėdami pakeisti žemėlapį: spustelėkite ant žalios mygtukų su juodo kryžiaus žemyn,; žalią mygtuką su brūkšneliu, jei norite nutolinti; arba žalių rodyklių gretimoms žemėlapius.


METAR-TAF: